Northern Sonoma County Latest

25 Stations

15 Minute Data | America/Los_Angeles
as of 5/6/26 12:20 PM PDT
Station Date Time Temp (°F) RH (%) Dew Pt (°F) Wind Spd (mph) Wind Dir (°) Wind Gust (mph) Latest Rain (In) Daily Rain (In) Daily Max Temp (°F) Daily Min Temp (°F)
Bavarian Lion EFW 5/6/26 1215 71.5   10.0 - - - - - 0.00 0.00 72.2   10.2 54.2   2.1
Rockpile Lower (Cooley) 5/6/26 1200 69.3   11.1 55   17 52.4   3.3 3.1   0.3 SSE | 147 8.9   1.0 0.00 0.00 70.6   12.1 52.4   3.8
Rockpile Upper (Cooley) 5/6/26 1215 66.1   10.5 59   20 51.4   2.3 5.9   3.1 S | 181 11.2   3.5 0.00 0.00 67.9   11.4 48.5   3.5
Lower Dry Creek Valley 5/6/26 1215 73.1   9.3 50   11 53.6   3.1 2.1   1.0 N | 354 7.1   2.5 0.00 0.00 73.6   6.7 55.0   3.3
Geyserville-South (Nervo Station) 5/6/26 1215 71.5   9.7 - - 3.3   0.3 SE | 146 9.8   4.0 0.00 0.00 72.5   7.7 54.1   3.6
Franz Valley (Stornetta) 5/6/26 1215 70.0   8.2 56   15 53.6   1.2 2.6   0.6 NNE | 20 6.4   0.4 0.00 0.00 70.6   8.4 53.3   2.0
Geyserville (Ranch 3) 5/6/26 1215 72.4   8.8 52   13 54.0   2.2 4.4   0.7 E | 101 9.1   1.7 0.00 0.00 73.0   9.0 55.4   3.3
Geyserville-North (Hoffman) 5/6/26 1215 73.5   9.2 55   12 56.4   3.1 4.2   0.3 SE | 130 9.7   2.4 0.00 0.00 74.8   9.1 55.7   4.6
Knights Valley (Bavarian Lion) 5/6/26 1215 69.8   9.0 57   14 54.0   2.8 1.9   0.3 S | 184 4.2   2.5 0.00 0.00 70.3   9.0 53.4   2.2
HWY 128/Chalk Hill Rd (Landslide) 5/6/26 1200 71.2   10.2 57   16 55.1   2.8 2.7   0.7 S | 180 5.8   2.1 0.00 0.00 71.7   10.3 55.1   2.7
Newman Knights Valley 5/6/26 1215 70.5   11.5 70   6 60.4   8.7 2.5   1.3 E | 93 5.6   2.3 0.00 0.00 71.5   12.2 54.5   2.0
Jimtown-North (Piccolo Ranch 15) 5/6/26 1215 71.2   8.6 57   7 55.4   4.9 2.1   0.4 SSE | 160 6.6   2.4 0.00 0.00 71.9   6.9 54.8   2.7
Peterson (Ranch 09) 5/6/26 1215 70.6   8.9 56   11 54.3   3.8 3.0   0.5 SSW | 212 10.0   4.7 0.00 0.00 71.2   9.1 54.1   2.4
Cloverdale-SE (Ranch 38) 5/6/26 1215 70.6   9.0 60   10 56.2   4.5 6.7   3.9 S | 180 12.9   6.2 0.00 0.00 71.8   9.3 53.7   3.6
Geyserville-East (Ranch 40) 5/6/26 1215 70.5   9.4 63   12 57.2   4.0 5.3   1.1 S | 187 8.9   0.8 0.00 0.00 72.1   9.3 52.2   2.3
N Chalk Hill Rd (Ranch 63) 5/6/26 1215 72.0   10.6 57   13 55.8   4.4 3.7   1.8 SSW | 205 9.0   3.6 0.00 0.00 72.4   10.9 53.6   4.6
Cloverdale-East (Ranch 83) 5/6/26 1215 72.6   8.7 - - 3.3   0.6 SE | 143 8.3   1.6 0.00 0.00 73.4   9.1 55.3   6.0
Crazy Creek Ranch 5/6/26 1215 70.2   8.1 65   9 57.9   4.4 3.2   1.1 SSW | 203 8.6   3.1 0.00 0.00 71.1   9.0 55.2   3.2
Lytton East (Hill 5) 5/6/26 1215 71.6   9.4 58   9 55.9   4.9 3.8   1.7 S | 180 11.3   5.8 0.00 0.00 72.6   9.5 53.9   3.3
Lytton East (Shop Hill Bottom) 5/6/26 1215 72.3   10.2 55   10 55.4   4.9 3.6   1.9 SSW | 209 9.6   5.5 0.00 0.00 73.7   9.6 54.2   3.2
Lytton West Hill (23PS) 5/6/26 1215 71.9   9.3 54   12 54.2   3.1 4.2   0.4 S | 171 9.7   3.2 0.00 0.00 72.4   8.4 54.6   2.9
Lytton West Lower (Lew 6) 5/6/26 1215 70.9   8.7 57   9 55.1   4.2 3.9   1.7 ESE | 116 8.9   2.5 0.00 0.00 71.4   8.4 54.2   3.0
Whitton Ranch (201e) 5/6/26 1215 72.1   9.1 56   12 55.6   3.3 2.7   0.2 SSE | 168 6.8   0.3 0.00 0.00 72.7   9.0 54.6   3.4
Upper Dry Creek Valley 5/6/26 1100 68.6   5.9 59   4 53.6   4.0 2.5   1.0 ESE | 112 4.8   0.5 0.00 0.00 69.2   6.2 55.1   3.8
Big River 5/6/26 1215 71.0   10.1 64   12 58.1   5.0 2.7   0.4 SSE | 156 7.7   3.5 0.00 0.00 71.9   10.6 54.4   2.4
Max     73.5 70 60.4 6.7 - 12.9 0.00 0.00 74.8 55.7
Avg     71.1 58 55.3 3.5 - 8.5 0.00 - - -
Min     66.1 50 51.4 1.9 - 4.2 0.00 0.00 67.9 48.5